Time;durP1;ratioP1;P1;durP2;ratioP2;P2;SDS_P1;SDS_P2;PMS_P1;PMS_P2;Temp;Humidity;BMP_temperature;BMP_pressure;BME280_temperature;BME280_humidity;BME280_pressure;Samples;Min_cycle;Max_cycle;Signal;HPM_P1;HPM_P2
2022/03/24 00:00:26;;;;;;;35.05;23.98;;;8.00;91.90;;;;;;5047628;28;20041;-88
2022/03/24 00:02:52;;;;;;;35.97;22.40;;;8.00;92.00;;;;;;5016027;28;20083;-88
2022/03/24 00:05:18;;;;;;;32.67;23.52;;;7.90;92.10;;;;;;5049361;28;20037;-88
2022/03/24 00:07:43;;;;;;;33.88;23.40;;;7.90;92.30;;;;;;5049119;28;20037;-88
2022/03/24 00:10:11;;;;;;;31.38;23.02;;;7.80;92.40;;;;;;5015647;28;20041;-88
2022/03/24 00:12:36;;;;;;;34.50;22.85;;;7.80;92.70;;;;;;5032695;28;20411;-88
2022/03/24 00:15:06;;;;;;;35.08;22.98;;;7.80;92.70;;;;;;5032325;28;20490;-88
2022/03/24 00:17:32;;;;;;;39.45;23.85;;;7.70;93.10;;;;;;5032275;28;20132;-88
2022/03/24 00:19:59;;;;;;;33.38;21.80;;;7.70;92.90;;;;;;5048500;28;20048;-88
2022/03/24 00:22:24;;;;;;;33.83;22.73;;;7.70;93.00;;;;;;5048921;28;20503;-88
2022/03/24 00:24:50;;;;;;;29.52;20.80;;;7.60;93.30;;;;;;5048950;28;20510;-88
2022/03/24 00:27:15;;;;;;;30.80;22.23;;;7.50;93.30;;;;;;5032029;28;20037;-88
2022/03/24 00:29:42;;;;;;;33.67;22.15;;;7.40;93.80;;;;;;5032077;28;20079;-88
2022/03/24 00:32:08;;;;;;;29.77;21.08;;;7.40;93.90;;;;;;5032063;28;20414;-88
2022/03/24 00:34:34;;;;;;;35.40;22.58;;;7.30;94.10;;;;;;5048698;28;20045;-87
2022/03/24 00:37:00;;;;;;;33.17;22.50;;;7.20;94.50;;;;;;5031894;28;20045;-88
2022/03/24 00:39:26;;;;;;;30.02;21.58;;;7.20;94.70;;;;;;5015254;28;20415;-87
2022/03/24 00:41:51;;;;;;;32.53;23.40;;;7.10;94.90;;;;;;5031526;28;20049;-88
2022/03/24 00:44:19;;;;;;;35.50;23.40;;;7.10;95.00;;;;;;5033133;28;20041;-88
2022/03/24 00:46:45;;;;;;;32.70;24.05;;;7.10;95.00;;;;;;5031632;28;20037;-88
2022/03/24 00:49:11;;;;;;;33.28;22.33;;;7.10;94.90;;;;;;5031629;28;20040;-88
2022/03/24 00:51:36;;;;;;;37.25;24.25;;;7.00;94.80;;;;;;5031214;28;20095;-88
2022/03/24 00:54:03;;;;;;;38.03;26.08;;;7.00;94.90;;;;;;5031555;28;20128;-88
2022/03/24 00:56:28;;;;;;;41.85;25.27;;;7.00;95.00;;;;;;5031947;28;20591;-88
2022/03/24 00:58:55;;;;;;;38.85;25.30;;;7.00;95.20;;;;;;5047965;28;20037;-88
2022/03/24 01:01:21;;;;;;;36.15;23.92;;;6.90;95.30;;;;;;5047479;28;20045;-88
2022/03/24 01:03:48;;;;;;;37.88;24.75;;;6.90;95.30;;;;;;5031747;28;20060;-88
2022/03/24 01:06:16;;;;;;;31.63;22.85;;;6.90;95.40;;;;;;5031359;28;20042;-88
2022/03/24 01:08:43;;;;;;;34.50;24.92;;;6.90;95.60;;;;;;5015020;28;20084;-88
2022/03/24 01:11:09;;;;;;;32.92;23.55;;;6.80;95.70;;;;;;5013981;28;20090;-88
2022/03/24 01:13:35;;;;;;;32.15;22.27;;;6.80;95.90;;;;;;5015000;28;20041;-88
2022/03/24 01:16:03;;;;;;;32.15;22.42;;;6.80;95.90;;;;;;5014745;28;20048;-88
2022/03/24 01:18:30;;;;;;;34.97;22.85;;;6.70;95.90;;;;;;5047900;28;20684;-88
2022/03/24 01:20:56;;;;;;;37.70;22.27;;;6.70;96.20;;;;;;5047498;28;20049;-88
2022/03/24 01:23:23;;;;;;;30.50;20.92;;;6.60;96.40;;;;;;5030982;28;20038;-88
2022/03/24 01:25:49;;;;;;;34.22;22.88;;;6.60;96.10;;;;;;5031145;28;20044;-88
2022/03/24 01:28:15;;;;;;;31.23;23.17;;;6.50;96.60;;;;;;5047818;28;20406;-88
2022/03/24 01:30:41;;;;;;;32.25;21.08;;;6.50;96.50;;;;;;5014288;28;20130;-88
2022/03/24 01:33:08;;;;;;;36.03;22.13;;;6.40;96.60;;;;;;5030863;28;20096;-88
2022/03/24 01:35:34;;;;;;;32.95;22.70;;;6.40;96.30;;;;;;5014477;28;20088;-88
2022/03/24 01:38:00;;;;;;;34.63;23.92;;;6.40;96.40;;;;;;5047412;28;20041;-88
2022/03/24 01:40:26;;;;;;;38.90;24.70;;;6.30;96.40;;;;;;5047069;28;20176;-87
2022/03/24 01:42:52;;;;;;;37.30;24.15;;;6.30;96.70;;;;;;5047340;28;20038;-87
2022/03/24 01:45:19;;;;;;;34.63;23.67;;;6.30;96.80;;;;;;5014557;28;20140;-87
2022/03/24 01:47:45;;;;;;;34.40;22.80;;;6.30;96.80;;;;;;5030856;28;20052;-87
2022/03/24 01:50:11;;;;;;;33.50;22.90;;;6.20;96.80;;;;;;5030573;28;20041;-87
2022/03/24 01:52:37;;;;;;;34.00;21.90;;;6.20;96.90;;;;;;5047133;28;20041;-87
2022/03/24 01:55:05;;;;;;;35.97;24.70;;;6.20;96.90;;;;;;5030508;28;20037;-87
2022/03/24 01:57:31;;;;;;;43.15;25.52;;;6.20;97.10;;;;;;5030436;28;20041;-87
2022/03/24 01:59:58;;;;;;;36.83;25.33;;;6.20;97.30;;;;;;5013853;28;20033;-87
2022/03/24 02:02:24;;;;;;;33.65;22.77;;;6.20;97.30;;;;;;5030350;28;20045;-87
2022/03/24 02:04:50;;;;;;;33.95;24.08;;;6.20;97.30;;;;;;5047132;28;20048;-87
2022/03/24 02:07:16;;;;;;;36.00;24.00;;;6.20;97.40;;;;;;5030285;28;20042;-87
2022/03/24 02:09:42;;;;;;;33.83;22.88;;;6.20;97.40;;;;;;5047061;28;20045;-87
2022/03/24 02:12:10;;;;;;;32.17;22.92;;;6.10;97.50;;;;;;5046733;28;20037;-88
2022/03/24 02:14:36;;;;;;;34.22;23.70;;;6.10;97.70;;;;;;5030510;28;20154;-87
2022/03/24 02:17:03;;;;;;;36.58;24.27;;;6.10;97.80;;;;;;5046931;28;20037;-88
2022/03/24 02:19:29;;;;;;;37.75;23.95;;;6.00;98.00;;;;;;5047014;28;20053;-87
2022/03/24 02:21:56;;;;;;;36.63;22.00;;;6.00;98.10;;;;;;5030391;28;20669;-88
2022/03/24 02:24:25;;;;;;;31.42;22.05;;;6.00;98.20;;;;;;5034169;28;20037;-88
2022/03/24 02:26:51;;;;;;;35.03;22.33;;;5.90;98.30;;;;;;5042670;28;20046;-87
2022/03/24 02:29:19;;;;;;;34.28;24.23;;;5.90;98.30;;;;;;5044111;28;20049;-88
2022/03/24 02:31:49;;;;;;;34.63;22.88;;;5.90;98.40;;;;;;5048307;28;20041;-88
2022/03/24 02:37:02;;;;;;;36.30;23.67;;;5.80;98.40;;;;;;5069581;28;20080;-88
2022/03/24 02:39:28;;;;;;;34.88;23.75;;;5.80;98.40;;;;;;5055055;28;20037;-87
2022/03/24 02:41:55;;;;;;;40.00;23.33;;;5.80;98.50;;;;;;5054503;28;20036;-88
2022/03/24 02:44:24;;;;;;;36.78;23.67;;;5.70;98.60;;;;;;5037872;28;20115;-87
2022/03/24 02:46:51;;;;;;;38.75;25.38;;;5.70;98.80;;;;;;5054252;28;20036;-88
2022/03/24 02:49:18;;;;;;;41.97;27.30;;;5.70;98.80;;;;;;5053936;28;20041;-88
2022/03/24 02:51:44;;;;;;;42.45;26.83;;;5.70;98.70;;;;;;5036522;28;20411;-88
2022/03/24 02:54:10;;;;;;;38.30;25.38;;;5.70;98.80;;;;;;5053857;28;20047;-88
2022/03/24 02:56:37;;;;;;;35.20;23.50;;;5.60;99.00;;;;;;5054004;28;20102;-88
2022/03/24 02:59:06;;;;;;;35.63;23.45;;;5.60;98.80;;;;;;5053470;28;20406;-88
2022/03/24 03:01:38;;;;;;;32.80;22.92;;;5.50;98.90;;;;;;5053269;28;20044;-88
2022/03/24 03:04:05;;;;;;;36.83;23.35;;;5.50;99.00;;;;;;5053598;28;20382;-88
2022/03/24 03:06:33;;;;;;;37.92;23.25;;;5.40;99.00;;;;;;5053898;28;20064;-88
2022/03/24 03:08:59;;;;;;;38.53;24.65;;;5.40;99.20;;;;;;5053445;28;20116;-88
2022/03/24 03:11:24;;;;;;;36.58;24.98;;;5.40;99.40;;;;;;5036657;28;20040;-88
2022/03/24 03:13:52;;;;;;;39.25;23.58;;;5.40;99.50;;;;;;5037048;28;20133;-88
2022/03/24 03:16:18;;;;;;;37.47;22.73;;;5.40;99.60;;;;;;5054792;28;20111;-88
2022/03/24 03:18:44;;;;;;;35.60;23.48;;;5.30;99.80;;;;;;5053171;28;20051;-88
2022/03/24 03:21:11;;;;;;;35.45;24.73;;;5.30;99.70;;;;;;5052669;28;20088;-88
2022/03/24 03:23:38;;;;;;;34.47;22.45;;;5.30;99.90;;;;;;5036841;28;20033;-88
2022/03/24 03:26:05;;;;;;;33.60;21.73;;;5.30;99.80;;;;;;5053111;28;20531;-88
2022/03/24 03:28:32;;;;;;;30.70;21.90;;;5.20;99.90;;;;;;5053025;28;20079;-88
2022/03/24 03:30:57;;;;;;;34.42;22.20;;;5.20;99.90;;;;;;5052677;28;20200;-88
2022/03/24 03:33:23;;;;;;;33.72;22.25;;;5.10;99.90;;;;;;5052647;28;20141;-88
2022/03/24 03:35:49;;;;;;;32.88;21.73;;;5.10;99.90;;;;;;5053173;28;20409;-87
2022/03/24 03:38:15;;;;;;;32.58;21.10;;;5.10;99.90;;;;;;5036328;28;20045;-88
2022/03/24 03:40:41;;;;;;;35.03;21.75;;;5.00;99.90;;;;;;5049846;28;20120;-88
2022/03/24 03:43:09;;;;;;;31.92;20.90;;;5.00;99.90;;;;;;5032945;28;20043;-88
2022/03/24 03:45:35;;;;;;;34.00;21.50;;;4.90;99.90;;;;;;5016788;28;20072;-88
2022/03/24 03:48:00;;;;;;;33.85;23.08;;;4.90;99.90;;;;;;5016271;28;20688;-88
2022/03/24 03:50:26;;;;;;;35.70;21.92;;;4.90;99.90;;;;;;5031358;28;20069;-88
2022/03/24 03:52:51;;;;;;;34.05;23.10;;;4.90;99.90;;;;;;5032350;28;20120;-88
2022/03/24 03:55:17;;;;;;;37.67;24.48;;;4.90;99.90;;;;;;5033320;28;20041;-88
2022/03/24 03:57:43;;;;;;;38.70;25.17;;;4.80;99.90;;;;;;5032416;28;20037;-88
2022/03/24 04:02:54;;;;;;;38.83;22.95;;;4.80;99.90;;;;;;5032140;28;20060;-88
2022/03/24 04:05:25;;;;;;;36.88;23.10;;;4.80;99.90;;;;;;5032307;28;20041;-87
2022/03/24 04:07:51;;;;;;;39.10;24.35;;;4.80;99.90;;;;;;5016154;28;20120;-88
2022/03/24 04:10:17;;;;;;;44.53;25.63;;;4.70;99.90;;;;;;5032175;28;20044;-88
2022/03/24 04:12:43;;;;;;;36.63;23.08;;;4.70;99.90;;;;;;5032488;28;20038;-88
2022/03/24 04:15:10;;;;;;;37.85;24.58;;;4.70;99.90;;;;;;5032263;28;20045;-88
2022/03/24 04:17:35;;;;;;;36.83;23.52;;;4.70;99.90;;;;;;5032414;28;20099;-88
2022/03/24 04:20:01;;;;;;;37.10;25.10;;;4.70;99.90;;;;;;5015488;28;20093;-88
2022/03/24 04:22:26;;;;;;;36.63;22.63;;;4.70;99.90;;;;;;5032151;28;20053;-88
2022/03/24 04:24:52;;;;;;;38.20;23.50;;;4.60;99.90;;;;;;5015749;28;20033;-88
2022/03/24 04:27:18;;;;;;;33.50;22.63;;;4.60;99.90;;;;;;5015633;28;20048;-87
2022/03/24 04:29:43;;;;;;;35.83;23.70;;;4.60;99.90;;;;;;5030922;28;20124;-87
2022/03/24 04:32:09;;;;;;;35.60;23.50;;;4.60;99.90;;;;;;5014865;28;20080;-88
2022/03/24 04:34:34;;;;;;;35.45;23.90;;;4.50;99.90;;;;;;5030964;28;20399;-87
2022/03/24 04:37:00;;;;;;;38.20;23.33;;;4.50;99.90;;;;;;5031105;28;20067;-87
2022/03/24 04:39:26;;;;;;;33.15;23.13;;;4.50;99.90;;;;;;5031040;28;20549;-88
2022/03/24 04:41:51;;;;;;;36.42;22.80;;;4.40;99.90;;;;;;5014522;28;20418;-87
2022/03/24 04:44:17;;;;;;;32.65;20.13;;;4.30;99.90;;;;;;5031127;28;20033;-87
2022/03/24 04:46:43;;;;;;;33.97;21.65;;;4.30;99.90;;;;;;5013907;28;20498;-87
2022/03/24 04:49:09;;;;;;;30.48;19.17;;;4.30;99.90;;;;;;5014522;28;20200;-87
2022/03/24 04:51:34;;;;;;;32.75;21.17;;;4.30;99.90;;;;;;5030205;28;20048;-87
2022/03/24 04:54:00;;;;;;;33.63;22.17;;;4.20;99.90;;;;;;5014398;28;20045;-87
2022/03/24 04:56:25;;;;;;;33.70;21.77;;;4.20;99.90;;;;;;5030721;28;20473;-87
2022/03/24 04:58:52;;;;;;;35.03;21.77;;;4.20;99.90;;;;;;5030732;28;20107;-87
2022/03/24 05:01:17;;;;;;;35.50;22.23;;;4.20;99.90;;;;;;5013616;28;20133;-87
2022/03/24 05:03:46;;;;;;;35.65;22.92;;;4.10;99.90;;;;;;5030724;28;20128;-87
2022/03/24 05:06:13;;;;;;;34.13;22.40;;;4.10;99.90;;;;;;5014167;28;20044;-88
2022/03/24 05:08:39;;;;;;;31.83;20.70;;;4.10;99.90;;;;;;5014412;28;20065;-87
2022/03/24 05:11:04;;;;;;;37.72;22.65;;;4.10;99.90;;;;;;5013402;28;20077;-87
2022/03/24 05:13:30;;;;;;;35.20;22.75;;;4.00;99.90;;;;;;5030516;28;20045;-87
2022/03/24 05:15:58;;;;;;;36.70;23.50;;;4.00;99.90;;;;;;5030741;28;20430;-87
2022/03/24 05:18:24;;;;;;;40.13;25.05;;;4.00;99.90;;;;;;5013762;28;20042;-88
2022/03/24 05:20:50;;;;;;;38.95;24.77;;;4.00;99.90;;;;;;5030025;28;20041;-88
2022/03/24 05:23:16;;;;;;;35.10;23.27;;;4.00;99.90;;;;;;5013722;28;20041;-88
2022/03/24 05:25:43;;;;;;;41.13;25.75;;;4.00;99.90;;;;;;5030182;28;20034;-87
2022/03/24 05:28:09;;;;;;;37.22;23.33;;;4.00;99.90;;;;;;5029784;28;20068;-87
2022/03/24 05:30:36;;;;;;;36.17;24.75;;;4.00;99.90;;;;;;5029452;28;20131;-87
2022/03/24 05:33:02;;;;;;;35.45;24.10;;;4.00;99.90;;;;;;5030047;28;20070;-88
2022/03/24 05:35:29;;;;;;;34.92;22.52;;;4.00;99.90;;;;;;5030322;28;20626;-87
2022/03/24 05:37:55;;;;;;;38.45;24.65;;;4.00;99.90;;;;;;5030730;28;20495;-87
2022/03/24 05:40:21;;;;;;;39.30;25.42;;;3.90;99.90;;;;;;5030599;28;20044;-87
2022/03/24 05:42:46;;;;;;;44.67;25.73;;;4.00;99.90;;;;;;5014232;28;20041;-87
2022/03/24 05:45:12;;;;;;;38.88;25.95;;;4.00;99.90;;;;;;5030956;28;20049;-87
2022/03/24 05:47:39;;;;;;;39.53;25.55;;;4.00;99.90;;;;;;5013824;28;20034;-87
2022/03/24 05:50:05;;;;;;;40.35;25.65;;;4.00;99.90;;;;;;5030308;28;20446;-87
2022/03/24 05:52:31;;;;;;;40.00;24.02;;;4.00;99.90;;;;;;5030333;28;20041;-88
2022/03/24 05:54:57;;;;;;;36.65;23.45;;;3.90;99.90;;;;;;5030491;28;20041;-87
2022/03/24 05:57:23;;;;;;;38.60;23.38;;;3.90;99.90;;;;;;5030707;28;20045;-88
2022/03/24 05:59:49;;;;;;;38.30;23.00;;;3.90;99.90;;;;;;5030270;28;20548;-88
2022/03/24 06:02:15;;;;;;;34.95;22.45;;;3.90;99.90;;;;;;5029879;28;20045;-87
2022/03/24 06:04:43;;;;;;;35.22;22.77;;;3.90;99.90;;;;;;5030456;28;20029;-87
2022/03/24 06:07:14;;;;;;;33.50;21.60;;;3.90;99.90;;;;;;5013876;28;20033;-88
2022/03/24 06:09:40;;;;;;;34.65;20.95;;;3.90;99.90;;;;;;5013833;28;20038;-87
2022/03/24 06:12:08;;;;;;;36.67;22.92;;;3.90;99.90;;;;;;5013865;28;20120;-87
2022/03/24 06:14:35;;;;;;;37.05;22.85;;;3.90;99.90;;;;;;5013936;28;20038;-87
2022/03/24 06:17:01;;;;;;;35.03;23.13;;;3.90;99.90;;;;;;5030300;28;20502;-87
2022/03/24 06:19:27;;;;;;;33.47;22.77;;;3.90;99.90;;;;;;5030169;28;20047;-86
2022/03/24 06:21:52;;;;;;;35.63;22.50;;;3.90;99.90;;;;;;5013680;28;20071;-87
2022/03/24 06:24:18;;;;;;;35.15;22.83;;;3.90;99.90;;;;;;5029376;28;20044;-87
2022/03/24 06:26:44;;;;;;;37.20;24.73;;;4.00;99.90;;;;;;5030302;28;20037;-88
2022/03/24 06:29:12;;;;;;;40.45;22.80;;;4.00;99.90;;;;;;5029902;28;20383;-87
2022/03/24 06:31:39;;;;;;;36.42;22.63;;;4.00;99.90;;;;;;5013413;28;20056;-88
2022/03/24 06:34:05;;;;;;;37.53;23.50;;;4.10;99.90;;;;;;5030008;28;20459;-88
2022/03/24 06:36:30;;;;;;;33.95;23.05;;;4.10;99.90;;;;;;5013518;28;20084;-87
2022/03/24 06:38:56;;;;;;;37.33;21.88;;;4.10;99.90;;;;;;5030198;28;20045;-87
2022/03/24 06:41:22;;;;;;;32.28;21.40;;;4.20;99.90;;;;;;5013127;28;20034;-88
2022/03/24 06:43:48;;;;;;;38.97;21.50;;;4.20;99.90;;;;;;5014027;28;20403;-87
2022/03/24 06:46:14;;;;;;;35.15;21.67;;;4.20;99.90;;;;;;5031372;28;20041;-87
2022/03/24 06:48:40;;;;;;;34.30;22.67;;;4.30;99.90;;;;;;5030097;28;20048;-87
2022/03/24 06:51:06;;;;;;;35.63;21.45;;;4.30;99.90;;;;;;5030297;28;20049;-87
2022/03/24 06:53:32;;;;;;;35.53;23.75;;;4.40;99.90;;;;;;5028952;28;20045;-87
2022/03/24 06:55:58;;;;;;;35.38;22.20;;;4.40;99.90;;;;;;5029276;28;20048;-87
2022/03/24 06:58:24;;;;;;;36.42;22.45;;;4.50;99.90;;;;;;5029345;28;20053;-87
2022/03/24 07:00:50;;;;;;;36.83;22.45;;;4.50;99.90;;;;;;5012360;28;20099;-87
2022/03/24 07:03:15;;;;;;;34.70;22.45;;;4.60;99.90;;;;;;5028274;28;20037;-87
2022/03/24 07:05:41;;;;;;;38.05;25.33;;;4.70;99.90;;;;;;5028901;28;20045;-87
2022/03/24 07:08:08;;;;;;;36.60;24.25;;;4.80;99.90;;;;;;5029126;28;20030;-87
2022/03/24 07:10:33;;;;;;;40.65;25.02;;;4.90;99.90;;;;;;5032385;28;20390;-87
2022/03/24 07:12:59;;;;;;;45.30;27.33;;;5.00;99.90;;;;;;5033375;28;20521;-88
2022/03/24 07:15:26;;;;;;;42.08;26.02;;;5.10;99.90;;;;;;5033431;28;20049;-88
2022/03/24 07:17:52;;;;;;;39.53;27.80;;;5.20;99.90;;;;;;5033305;28;20041;-88
2022/03/24 07:20:18;;;;;;;41.53;25.85;;;5.30;99.90;;;;;;5032213;28;20499;-88
2022/03/24 07:22:46;;;;;;;43.95;29.95;;;5.40;99.90;;;;;;5032631;28;20037;-88
2022/03/24 07:25:12;;;;;;;47.05;30.75;;;5.50;99.90;;;;;;5033191;28;20041;-88
2022/03/24 07:27:38;;;;;;;48.35;31.65;;;5.60;99.90;;;;;;5033362;28;20037;-89
2022/03/24 07:30:05;;;;;;;50.00;33.00;;;5.80;99.90;;;;;;5032765;28;20040;-88
2022/03/24 07:32:31;;;;;;;49.67;33.22;;;5.90;99.90;;;;;;5032214;28;20049;-88
2022/03/24 07:34:58;;;;;;;49.35;34.80;;;6.10;99.90;;;;;;5032905;28;20124;-88
2022/03/24 07:37:23;;;;;;;54.65;34.55;;;6.20;99.90;;;;;;5033298;28;20041;-88
2022/03/24 07:39:49;;;;;;;57.88;36.88;;;6.40;99.90;;;;;;5032678;28;20095;-89
2022/03/24 07:42:15;;;;;;;50.00;35.55;;;6.50;99.90;;;;;;5016455;28;20046;-89
2022/03/24 07:44:41;;;;;;;52.97;36.92;;;6.60;99.90;;;;;;5033153;28;20041;-89
2022/03/24 07:47:07;;;;;;;55.20;37.67;;;6.80;99.90;;;;;;5031037;28;20522;-90
2022/03/24 07:49:32;;;;;;;52.67;37.17;;;6.90;99.90;;;;;;5030795;28;20621;-89
2022/03/24 07:51:58;;;;;;;55.03;36.85;;;7.10;99.90;;;;;;5032167;28;20071;-89
2022/03/24 07:54:55;;;;;;;54.10;36.00;;;7.20;99.90;;;;;;5015636;28;20049;-89
2022/03/24 07:57:21;;;;;;;52.28;35.05;;;7.40;99.90;;;;;;5033311;28;20056;-89
2022/03/24 07:59:47;;;;;;;50.88;35.13;;;7.60;99.90;;;;;;5031629;28;20069;-89
2022/03/24 08:02:12;;;;;;;49.70;36.30;;;7.70;99.90;;;;;;5047409;28;20033;-88
2022/03/24 08:04:38;;;;;;;48.13;35.53;;;7.80;99.90;;;;;;5064343;28;20021;-89
2022/03/24 08:07:04;;;;;;;47.78;34.42;;;8.00;99.90;;;;;;5056064;28;20100;-89
2022/03/24 08:09:33;;;;;;;46.55;35.20;;;8.20;99.90;;;;;;5049289;28;20037;-88
2022/03/24 08:11:59;;;;;;;53.50;35.97;;;8.30;99.90;;;;;;5070222;28;20033;-89
2022/03/24 08:14:26;;;;;;;55.58;34.67;;;8.50;99.90;;;;;;5069780;28;20041;-89
2022/03/24 08:16:51;;;;;;;46.17;32.22;;;8.60;99.90;;;;;;5060279;28;20584;-90
2022/03/24 08:19:17;;;;;;;52.72;33.40;;;8.70;99.90;;;;;;5052088;28;20045;-89
2022/03/24 08:21:43;;;;;;;46.88;33.50;;;8.90;99.90;;;;;;5049760;28;20639;-90
2022/03/24 08:24:09;;;;;;;50.50;35.95;;;9.00;99.90;;;;;;5051469;28;20037;-89
2022/03/24 08:26:35;;;;;;;46.33;34.05;;;9.20;99.90;;;;;;5051926;28;20083;-90
2022/03/24 08:29:02;;;;;;;49.80;36.55;;;9.30;99.90;;;;;;5051585;28;20528;-90
2022/03/24 08:31:28;;;;;;;43.55;32.60;;;9.50;99.90;;;;;;5051285;28;20586;-90
2022/03/24 08:33:54;;;;;;;45.38;34.10;;;9.60;99.90;;;;;;5035210;28;20049;-90
2022/03/24 08:36:20;;;;;;;44.15;32.42;;;9.70;99.90;;;;;;5034921;28;20037;-89
2022/03/24 08:38:46;;;;;;;50.05;34.88;;;9.90;99.90;;;;;;5044071;28;20042;-89
2022/03/24 08:41:11;;;;;;;44.90;33.47;;;10.00;99.90;;;;;;5031612;28;20034;-90
2022/03/24 08:43:38;;;;;;;47.17;33.15;;;10.20;99.90;;;;;;5031574;28;20056;-90
2022/03/24 08:46:06;;;;;;;45.90;34.53;;;10.30;99.90;;;;;;5031680;28;20131;-89
2022/03/24 08:48:32;;;;;;;41.58;33.22;;;10.50;99.90;;;;;;5030779;28;20124;-90
2022/03/24 08:50:58;;;;;;;45.92;34.33;;;10.60;99.80;;;;;;5029731;28;20116;-90
2022/03/24 08:53:23;;;;;;;48.25;35.25;;;10.70;99.40;;;;;;5013613;28;20479;-89
2022/03/24 08:55:49;;;;;;;44.75;34.72;;;10.90;99.00;;;;;;5031624;28;20075;-90
2022/03/24 08:58:18;;;;;;;48.03;35.40;;;11.10;99.00;;;;;;5030829;28;20033;-90
2022/03/24 09:00:45;;;;;;;42.22;33.05;;;11.30;98.70;;;;;;5031293;28;20084;-90
2022/03/24 09:03:11;;;;;;;43.70;33.63;;;11.40;98.70;;;;;;5031381;28;20533;-90
2022/03/24 09:05:36;;;;;;;40.55;31.15;;;11.60;97.90;;;;;;5014859;28;20041;-90
2022/03/24 09:08:02;;;;;;;40.60;33.65;;;11.70;97.10;;;;;;5032388;28;20042;-90
2022/03/24 09:10:28;;;;;;;40.28;33.25;;;11.90;96.50;;;;;;5030603;28;20068;-89
2022/03/24 09:12:53;;;;;;;40.20;33.33;;;12.00;96.60;;;;;;5030923;28;20037;-90
2022/03/24 09:15:19;;;;;;;40.40;33.40;;;12.20;96.30;;;;;;5015058;28;20049;-90
2022/03/24 09:17:46;;;;;;;43.20;34.28;;;12.40;95.80;;;;;;5014167;28;20048;-90
2022/03/24 09:20:14;;;;;;;45.05;34.85;;;12.60;96.10;;;;;;5031019;28;20514;-90
2022/03/24 09:22:43;;;;;;;42.95;33.83;;;12.80;95.20;;;;;;5030787;28;20081;-90
2022/03/24 09:25:10;;;;;;;42.38;33.78;;;12.90;94.30;;;;;;5030791;28;20132;-90
2022/03/24 09:27:36;;;;;;;39.45;33.60;;;13.10;94.20;;;;;;5030886;28;20041;-89
2022/03/24 09:30:04;;;;;;;41.25;33.50;;;13.30;93.30;;;;;;5013503;28;20044;-90
2022/03/24 09:32:29;;;;;;;37.53;33.38;;;13.50;93.10;;;;;;5030344;28;20045;-90
2022/03/24 09:34:55;;;;;;;37.50;32.50;;;13.60;92.60;;;;;;5013826;28;20047;-90
2022/03/24 09:37:22;;;;;;;40.30;34.60;;;13.80;91.80;;;;;;5013992;28;20045;-90
2022/03/24 09:39:49;;;;;;;39.40;32.60;;;14.00;91.50;;;;;;5030251;28;20077;-90
2022/03/24 09:42:15;;;;;;;42.42;32.88;;;14.10;91.10;;;;;;5029916;28;20096;-90
2022/03/24 09:44:45;;;;;;;44.38;34.80;;;14.30;88.90;;;;;;5014097;28;20076;-90
2022/03/24 09:47:12;;;;;;;37.08;32.97;;;14.50;87.80;;;;;;5030014;28;20584;-90
2022/03/24 09:49:39;;;;;;;38.97;33.42;;;14.60;87.30;;;;;;5013264;28;20029;-90
2022/03/24 09:52:06;;;;;;;40.85;36.15;;;14.80;86.60;;;;;;5029715;28;20080;-90
2022/03/24 09:54:31;;;;;;;35.97;31.98;;;15.00;86.30;;;;;;5013736;28;20081;-90
2022/03/24 09:57:03;;;;;;;38.78;33.30;;;15.10;83.40;;;;;;5014360;28;20494;-90
2022/03/24 09:59:29;;;;;;;39.25;32.17;;;15.30;81.40;;;;;;5030136;28;20125;-90
2022/03/24 10:01:55;;;;;;;35.55;31.35;;;15.50;79.20;;;;;;5030090;28;20149;-90
2022/03/24 10:04:21;;;;;;;36.85;31.25;;;15.60;77.60;;;;;;5029600;28;20045;-90
2022/03/24 10:06:59;;;;;;;40.33;32.42;;;15.80;74.30;;;;;;5013908;28;20029;-90
2022/03/24 10:09:43;;;;;;;37.03;31.80;;;16.00;74.10;;;;;;5029897;28;20071;-90
2022/03/24 10:12:21;;;;;;;33.83;30.02;;;16.20;74.50;;;;;;5029879;28;20498;-90
2022/03/24 10:14:56;;;;;;;36.88;29.10;;;16.40;72.20;;;;;;5030202;28;20046;-89
2022/03/24 10:17:22;;;;;;;33.58;28.70;;;16.60;70.60;;;;;;5013235;28;20048;-90
2022/03/24 10:20:05;;;;;;;33.92;27.00;;;16.70;69.10;;;;;;5029777;28;20431;-90
2022/03/24 10:22:34;;;;;;;;;;;16.90;65.90;;;;;;5030503;28;20041;-89
2022/03/24 10:25:01;;;;;;;33.22;26.83;;;16.90;66.20;;;;;;5030406;28;19917;-90
2022/03/24 10:27:28;;;;;;;32.33;26.70;;;17.10;65.40;;;;;;5029653;28;20044;-90
2022/03/24 10:29:56;;;;;;;36.28;28.20;;;17.30;63.90;;;;;;5028964;28;20033;-90
2022/03/24 10:32:30;;;;;;;30.35;26.83;;;17.50;64.30;;;;;;5029870;28;20095;-90
2022/03/24 10:34:58;;;;;;;32.17;27.50;;;17.70;62.30;;;;;;5029593;28;20133;-90
2022/03/24 10:37:26;;;;;;;30.50;26.60;;;17.80;59.30;;;;;;5029718;28;20128;-90
2022/03/24 10:39:55;;;;;;;34.40;27.33;;;18.00;58.90;;;;;;5028562;28;20051;-90
2022/03/24 10:42:23;;;;;;;31.38;26.40;;;18.10;57.70;;;;;;5026780;28;20103;-90
2022/03/24 10:45:12;;;;;;;31.75;26.88;;;18.20;57.00;;;;;;5032638;28;20041;-90
2022/03/24 10:47:48;;;;;;;34.08;27.35;;;18.40;57.10;;;;;;5033385;28;20041;-90
2022/03/24 10:50:28;;;;;;;29.27;24.30;;;18.60;57.20;;;;;;5017121;28;20096;-90
2022/03/24 10:52:57;;;;;;;33.75;25.38;;;18.80;55.50;;;;;;5031632;28;20045;-91
2022/03/24 10:55:35;;;;;;;24.30;21.70;;;18.90;54.30;;;;;;5033767;28;20119;-91
2022/03/24 10:58:04;;;;;;;27.45;21.58;;;19.10;51.00;;;;;;5016905;28;20569;-89
2022/03/24 11:00:31;;;;;;;26.08;21.40;;;19.10;50.50;;;;;;5032800;28;20049;-90
2022/03/24 11:02:57;;;;;;;24.92;20.63;;;19.20;48.40;;;;;;5017010;28;20047;-90
2022/03/24 11:05:22;;;;;;;23.60;20.98;;;19.40;48.10;;;;;;5033397;28;20564;-90
2022/03/24 11:07:55;;;;;;;24.02;20.63;;;19.50;47.60;;;;;;5033678;28;20037;-90
2022/03/24 11:10:22;;;;;;;24.38;20.85;;;19.60;46.60;;;;;;5016501;28;20055;-91
2022/03/24 11:12:57;;;;;;;23.63;19.73;;;19.70;46.10;;;;;;5033279;28;20038;-90
2022/03/24 11:15:23;;;;;;;26.95;20.73;;;19.80;45.50;;;;;;5016688;28;20494;-90
2022/03/24 11:17:49;;;;;;;28.35;21.83;;;19.90;45.60;;;;;;5033469;28;20038;-90
2022/03/24 11:20:17;;;;;;;25.25;21.88;;;20.10;46.10;;;;;;5016679;28;20557;-91
2022/03/24 11:22:52;;;;;;;32.17;23.42;;;20.30;45.90;;;;;;5033278;28;20045;-91
2022/03/24 11:25:20;;;;;;;26.30;22.92;;;20.50;47.20;;;;;;5033327;28;20442;-91
2022/03/24 11:27:46;;;;;;;26.15;23.20;;;20.70;46.60;;;;;;5016674;28;20087;-90
2022/03/24 11:30:13;;;;;;;29.10;23.55;;;20.90;45.50;;;;;;5032886;28;20084;-89
2022/03/24 11:32:43;;;;;;;26.90;21.73;;;21.00;44.30;;;;;;5016597;28;20459;-90
2022/03/24 11:35:09;;;;;;;24.77;22.10;;;21.10;43.00;;;;;;5016039;28;20033;-90
2022/03/24 11:37:35;;;;;;;26.65;20.88;;;21.20;43.00;;;;;;5033133;28;20083;-91
2022/03/24 11:40:18;;;;;;;24.52;21.90;;;21.30;42.90;;;;;;5016527;28;20465;-90
2022/03/24 11:42:54;;;;;;;25.73;23.02;;;21.50;43.00;;;;;;5031804;28;20129;-91
2022/03/24 11:45:49;;;;;;;28.52;24.50;;;21.60;43.00;;;;;;5016407;28;20045;-90
2022/03/24 11:48:16;;;;;;;26.80;22.55;;;21.80;43.20;;;;;;5015818;28;20403;-90
2022/03/24 11:50:52;;;;;;;25.25;22.10;;;22.00;41.90;;;;;;5032642;28;20491;-91
2022/03/24 11:53:29;;;;;;;26.67;22.55;;;22.20;41.80;;;;;;5032420;28;20403;-91
2022/03/24 11:56:03;;;;;;;23.63;20.45;;;22.30;41.10;;;;;;5031673;28;20043;-90
2022/03/24 11:58:31;;;;;;;24.27;20.83;;;22.50;40.00;;;;;;5032558;28;20073;-90
2022/03/24 12:01:17;;;;;;;20.60;18.35;;;22.60;39.50;;;;;;5032214;28;20048;-90
2022/03/24 12:03:44;;;;;;;19.10;16.52;;;22.80;38.40;;;;;;5025188;28;20115;-90
2022/03/24 12:06:13;;;;;;;26.05;20.52;;;22.90;36.60;;;;;;5015848;28;20049;-89
2022/03/24 12:08:59;;;;;;;23.85;20.02;;;23.00;36.80;;;;;;5032238;28;20103;-90
2022/03/24 12:11:31;;;;;;;24.92;19.90;;;23.10;37.60;;;;;;5031943;28;20050;-91
2022/03/24 12:14:05;;;;;;;21.45;19.17;;;23.30;37.40;;;;;;5031222;28;20048;-90
2022/03/24 12:16:31;;;;;;;21.15;18.95;;;23.40;37.00;;;;;;5015591;28;20053;-91
2022/03/24 12:18:58;;;;;;;20.63;17.65;;;23.50;36.20;;;;;;5031445;28;20038;-90
2022/03/24 12:21:26;;;;;;;22.40;18.65;;;23.60;35.10;;;;;;5014960;28;20045;-91
2022/03/24 12:24:09;;;;;;;22.15;18.55;;;23.80;34.00;;;;;;5032131;28;20510;-90
2022/03/24 12:26:40;;;;;;;22.80;19.58;;;23.60;35.30;;;;;;5031084;28;20120;-90
2022/03/24 12:29:11;;;;;;;23.50;18.42;;;23.70;35.30;;;;;;5031566;28;20391;-91
2022/03/24 12:32:00;;;;;;;21.92;19.10;;;23.90;34.60;;;;;;5014305;28;20446;-90
2022/03/24 12:34:44;;;;;;;21.55;18.75;;;24.00;34.20;;;;;;5013376;28;20127;-90
2022/03/24 12:37:32;;;;;;;21.25;18.27;;;24.10;35.20;;;;;;5014980;28;20046;-91
2022/03/24 12:40:05;;;;;;;23.25;18.05;;;24.40;34.50;;;;;;5031843;28;20124;-91